sensor_id;sensor_type;location;lat;lon;timestamp;pressure;altitude;pressure_sealevel;temperature;humidity
63654;BME280;49809;47.418;19.080;2023-04-10T00:01:01;101247.91;;;1.65;100.00
63654;BME280;49809;47.418;19.080;2023-04-10T00:04:04;101244.38;;;1.58;100.00
63654;BME280;49809;47.418;19.080;2023-04-10T00:07:09;101241.31;;;1.54;100.00
63654;BME280;49809;47.418;19.080;2023-04-10T00:10:13;101235.59;;;1.51;100.00
63654;BME280;49809;47.418;19.080;2023-04-10T00:13:18;101230.50;;;1.57;100.00
63654;BME280;49809;47.418;19.080;2023-04-10T00:16:22;101232.97;;;1.59;100.00
63654;BME280;49809;47.418;19.080;2023-04-10T00:19:25;101231.78;;;1.61;100.00
63654;BME280;49809;47.418;19.080;2023-04-10T00:22:30;101216.94;;;1.62;100.00
63654;BME280;49809;47.418;19.080;2023-04-10T00:25:35;101222.34;;;1.60;100.00
63654;BME280;49809;47.418;19.080;2023-04-10T00:28:38;101221.72;;;1.50;100.00
63654;BME280;49809;47.418;19.080;2023-04-10T00:31:43;101219.31;;;1.41;100.00
63654;BME280;49809;47.418;19.080;2023-04-10T00:34:50;101211.78;;;1.46;100.00
63654;BME280;49809;47.418;19.080;2023-04-10T00:37:53;101214.44;;;1.38;100.00
63654;BME280;49809;47.418;19.080;2023-04-10T00:41:05;101216.75;;;1.33;100.00
63654;BME280;49809;47.418;19.080;2023-04-10T00:44:09;101210.91;;;1.30;100.00
63654;BME280;49809;47.418;19.080;2023-04-10T00:47:15;101206.81;;;1.28;100.00
63654;BME280;49809;47.418;19.080;2023-04-10T00:50:20;101204.06;;;1.29;100.00
63654;BME280;49809;47.418;19.080;2023-04-10T00:54:10;101206.19;;;1.18;100.00
63654;BME280;49809;47.418;19.080;2023-04-10T00:57:14;101202.31;;;1.14;100.00
63654;BME280;49809;47.418;19.080;2023-04-10T01:00:21;101199.53;;;1.15;100.00
63654;BME280;49809;47.418;19.080;2023-04-10T01:03:27;101195.66;;;1.11;100.00
63654;BME280;49809;47.418;19.080;2023-04-10T01:06:53;101198.88;;;1.13;100.00
63654;BME280;49809;47.418;19.080;2023-04-10T01:10:32;101197.91;;;1.14;100.00
63654;BME280;49809;47.418;19.080;2023-04-10T01:14:06;101194.62;;;1.12;100.00
63654;BME280;49809;47.418;19.080;2023-04-10T01:17:21;101205.09;;;1.04;100.00
63654;BME280;49809;47.418;19.080;2023-04-10T01:20:37;101197.62;;;1.01;100.00
63654;BME280;49809;47.418;19.080;2023-04-10T01:27:34;101187.66;;;1.05;100.00
63654;BME280;49809;47.418;19.080;2023-04-10T01:30:46;101187.81;;;1.03;100.00
63654;BME280;49809;47.418;19.080;2023-04-10T01:34:01;101196.63;;;1.10;100.00
63654;BME280;49809;47.418;19.080;2023-04-10T01:37:26;101182.59;;;1.11;100.00
63654;BME280;49809;47.418;19.080;2023-04-10T01:40:30;101189.44;;;1.12;100.00
63654;BME280;49809;47.418;19.080;2023-04-10T01:43:34;101177.72;;;1.08;100.00
63654;BME280;49809;47.418;19.080;2023-04-10T01:46:39;101179.34;;;1.09;100.00
63654;BME280;49809;47.418;19.080;2023-04-10T01:49:49;101186.03;;;1.04;100.00
63654;BME280;49809;47.418;19.080;2023-04-10T01:52:53;101189.63;;;1.03;100.00
63654;BME280;49809;47.418;19.080;2023-04-10T01:56:00;101200.03;;;1.03;100.00
63654;BME280;49809;47.418;19.080;2023-04-10T01:59:34;101195.34;;;0.98;100.00
63654;BME280;49809;47.418;19.080;2023-04-10T02:02:37;101188.69;;;0.96;100.00
63654;BME280;49809;47.418;19.080;2023-04-10T02:09:21;101183.59;;;1.02;100.00
63654;BME280;49809;47.418;19.080;2023-04-10T02:12:29;101190.16;;;0.90;100.00
63654;BME280;49809;47.418;19.080;2023-04-10T02:15:39;101188.50;;;0.89;100.00
63654;BME280;49809;47.418;19.080;2023-04-10T02:19:26;101184.28;;;0.88;100.00
63654;BME280;49809;47.418;19.080;2023-04-10T02:22:30;101187.56;;;0.82;100.00
63654;BME280;49809;47.418;19.080;2023-04-10T02:25:34;101188.88;;;0.86;100.00
63654;BME280;49809;47.418;19.080;2023-04-10T02:28:39;101188.34;;;0.82;100.00
63654;BME280;49809;47.418;19.080;2023-04-10T02:31:44;101190.50;;;0.79;100.00
63654;BME280;49809;47.418;19.080;2023-04-10T02:34:48;101188.53;;;0.81;100.00
63654;BME280;49809;47.418;19.080;2023-04-10T02:37:51;101184.00;;;0.75;100.00
63654;BME280;49809;47.418;19.080;2023-04-10T02:40:55;101176.16;;;0.75;100.00
63654;BME280;49809;47.418;19.080;2023-04-10T02:43:58;101182.66;;;0.79;100.00
63654;BME280;49809;47.418;19.080;2023-04-10T02:47:04;101179.09;;;0.80;100.00
63654;BME280;49809;47.418;19.080;2023-04-10T02:50:11;101170.97;;;0.75;100.00
63654;BME280;49809;47.418;19.080;2023-04-10T02:53:16;101169.66;;;0.71;100.00
63654;BME280;49809;47.418;19.080;2023-04-10T02:56:20;101165.44;;;0.70;100.00
63654;BME280;49809;47.418;19.080;2023-04-10T02:59:24;101166.41;;;0.69;100.00
63654;BME280;49809;47.418;19.080;2023-04-10T03:02:27;101161.53;;;0.66;100.00
63654;BME280;49809;47.418;19.080;2023-04-10T03:05:33;101156.31;;;0.66;100.00
63654;BME280;49809;47.418;19.080;2023-04-10T03:08:37;101153.88;;;0.64;100.00
63654;BME280;49809;47.418;19.080;2023-04-10T03:11:40;101150.47;;;0.56;100.00
63654;BME280;49809;47.418;19.080;2023-04-10T03:14:43;101153.22;;;0.54;100.00
63654;BME280;49809;47.418;19.080;2023-04-10T03:17:48;101156.03;;;0.53;100.00
63654;BME280;49809;47.418;19.080;2023-04-10T03:20:54;101153.72;;;0.50;100.00
63654;BME280;49809;47.418;19.080;2023-04-10T03:23:57;101154.88;;;0.55;100.00
63654;BME280;49809;47.418;19.080;2023-04-10T03:27:00;101165.13;;;0.57;100.00
63654;BME280;49809;47.418;19.080;2023-04-10T03:30:05;101161.53;;;0.50;100.00
63654;BME280;49809;47.418;19.080;2023-04-10T03:33:31;101161.88;;;0.47;100.00
63654;BME280;49809;47.418;19.080;2023-04-10T03:36:49;101164.34;;;0.48;100.00
63654;BME280;49809;47.418;19.080;2023-04-10T03:43:57;101165.13;;;0.49;100.00
63654;BME280;49809;47.418;19.080;2023-04-10T03:47:24;101165.47;;;0.46;100.00
63654;BME280;49809;47.418;19.080;2023-04-10T03:50:44;101163.81;;;0.44;100.00
63654;BME280;49809;47.418;19.080;2023-04-10T03:54:14;101165.28;;;0.55;100.00
63654;BME280;49809;47.418;19.080;2023-04-10T03:57:32;101174.91;;;0.47;100.00
63654;BME280;49809;47.418;19.080;2023-04-10T04:00:54;101170.19;;;0.42;100.00
63654;BME280;49809;47.418;19.080;2023-04-10T04:04:31;101179.44;;;0.44;100.00
63654;BME280;49809;47.418;19.080;2023-04-10T04:07:48;101174.09;;;0.46;100.00
63654;BME280;49809;47.418;19.080;2023-04-10T04:11:23;101171.97;;;0.41;100.00
63654;BME280;49809;47.418;19.080;2023-04-10T04:14:58;101178.16;;;0.40;100.00
63654;BME280;49809;47.418;19.080;2023-04-10T04:18:37;101176.88;;;0.36;100.00
63654;BME280;49809;47.418;19.080;2023-04-10T04:22:12;101172.78;;;0.42;100.00
63654;BME280;49809;47.418;19.080;2023-04-10T04:25:29;101189.22;;;0.34;100.00
63654;BME280;49809;47.418;19.080;2023-04-10T04:29:00;101189.06;;;0.36;100.00
63654;BME280;49809;47.418;19.080;2023-04-10T04:32:40;101186.94;;;0.39;100.00
63654;BME280;49809;47.418;19.080;2023-04-10T04:36:12;101189.37;;;0.49;100.00
63654;BME280;49809;47.418;19.080;2023-04-10T04:39:47;101187.59;;;0.58;100.00
63654;BME280;49809;47.418;19.080;2023-04-10T04:43:22;101195.72;;;0.55;100.00
63654;BME280;49809;47.418;19.080;2023-04-10T04:46:59;101196.22;;;0.58;100.00
63654;BME280;49809;47.418;19.080;2023-04-10T04:50:26;101196.37;;;0.65;100.00
63654;BME280;49809;47.418;19.080;2023-04-10T04:54:02;101191.31;;;0.71;100.00
63654;BME280;49809;47.418;19.080;2023-04-10T04:57:31;101204.34;;;0.79;100.00
63654;BME280;49809;47.418;19.080;2023-04-10T05:00:55;101210.19;;;0.90;100.00
63654;BME280;49809;47.418;19.080;2023-04-10T05:04:27;101213.28;;;1.01;100.00
63654;BME280;49809;47.418;19.080;2023-04-10T05:07:44;101208.19;;;1.16;100.00
63654;BME280;49809;47.418;19.080;2023-04-10T05:11:01;101213.16;;;1.34;100.00
63654;BME280;49809;47.418;19.080;2023-04-10T05:14:30;101213.00;;;1.66;100.00
63654;BME280;49809;47.418;19.080;2023-04-10T05:17:48;101217.44;;;1.96;100.00
63654;BME280;49809;47.418;19.080;2023-04-10T05:21:18;101221.91;;;2.10;100.00
63654;BME280;49809;47.418;19.080;2023-04-10T05:24:52;101223.75;;;2.47;100.00
63654;BME280;49809;47.418;19.080;2023-04-10T05:28:21;101220.03;;;2.65;100.00
63654;BME280;49809;47.418;19.080;2023-04-10T05:31:56;101219.25;;;2.93;100.00
63654;BME280;49809;47.418;19.080;2023-04-10T05:35:29;101222.06;;;3.06;100.00
63654;BME280;49809;47.418;19.080;2023-04-10T05:38:47;101217.75;;;3.28;100.00
63654;BME280;49809;47.418;19.080;2023-04-10T05:42:08;101221.59;;;3.47;100.00
63654;BME280;49809;47.418;19.080;2023-04-10T05:45:34;101221.38;;;3.63;100.00
63654;BME280;49809;47.418;19.080;2023-04-10T05:49:11;101220.06;;;3.88;100.00
63654;BME280;49809;47.418;19.080;2023-04-10T05:52:46;101226.16;;;4.10;100.00
63654;BME280;49809;47.418;19.080;2023-04-10T05:56:03;101223.34;;;4.33;100.00
63654;BME280;49809;47.418;19.080;2023-04-10T06:10:51;101222.03;;;4.93;100.00
63654;BME280;49809;47.418;19.080;2023-04-10T06:14:10;101223.56;;;5.15;100.00
63654;BME280;49809;47.418;19.080;2023-04-10T06:17:41;101232.59;;;5.40;100.00
63654;BME280;49809;47.418;19.080;2023-04-10T06:20:59;101220.97;;;5.56;100.00
63654;BME280;49809;47.418;19.080;2023-04-10T06:24:26;101229.16;;;5.81;100.00
63654;BME280;49809;47.418;19.080;2023-04-10T06:27:55;101221.53;;;5.92;100.00
63654;BME280;49809;47.418;19.080;2023-04-10T06:31:24;101223.19;;;6.20;99.92
63654;BME280;49809;47.418;19.080;2023-04-10T06:34:40;101225.03;;;6.26;97.90
63654;BME280;49809;47.418;19.080;2023-04-10T06:41:45;101231.72;;;6.74;97.04
63654;BME280;49809;47.418;19.080;2023-04-10T06:45:23;101226.06;;;6.97;94.94
63654;BME280;49809;47.418;19.080;2023-04-10T06:49:01;101221.97;;;7.14;92.89
63654;BME280;49809;47.418;19.080;2023-04-10T06:52:18;101218.66;;;7.38;91.37
63654;BME280;49809;47.418;19.080;2023-04-10T06:59:26;101220.91;;;7.79;89.01
63654;BME280;49809;47.418;19.080;2023-04-10T07:02:43;101216.34;;;8.00;84.55
63654;BME280;49809;47.418;19.080;2023-04-10T07:06:02;101218.22;;;8.31;84.62
63654;BME280;49809;47.418;19.080;2023-04-10T07:09:37;101218.91;;;8.51;82.12
63654;BME280;49809;47.418;19.080;2023-04-10T07:16:36;101214.00;;;9.15;75.69
63654;BME280;49809;47.418;19.080;2023-04-10T07:19:57;101209.84;;;9.26;74.71
63654;BME280;49809;47.418;19.080;2023-04-10T07:30:30;101208.47;;;10.20;70.01
63654;BME280;49809;47.418;19.080;2023-04-10T07:34:05;101195.66;;;10.58;70.21
63654;BME280;49809;47.418;19.080;2023-04-10T07:37:40;101197.38;;;10.87;68.53
63654;BME280;49809;47.418;19.080;2023-04-10T07:41:25;101192.28;;;11.21;67.08
63654;BME280;49809;47.418;19.080;2023-04-10T07:45:00;101194.19;;;11.37;64.07
63654;BME280;49809;47.418;19.080;2023-04-10T07:48:41;101189.09;;;11.47;63.33
63654;BME280;49809;47.418;19.080;2023-04-10T07:52:18;101177.84;;;11.97;62.39
63654;BME280;49809;47.418;19.080;2023-04-10T07:55:53;101178.81;;;11.91;61.70
63654;BME280;49809;47.418;19.080;2023-04-10T07:59:29;101181.03;;;12.27;59.15
63654;BME280;49809;47.418;19.080;2023-04-10T08:03:05;101170.78;;;12.69;57.71
63654;BME280;49809;47.418;19.080;2023-04-10T08:06:35;101167.97;;;13.14;55.27
63654;BME280;49809;47.418;19.080;2023-04-10T08:10:10;101168.34;;;13.44;54.51
63654;BME280;49809;47.418;19.080;2023-04-10T08:13:48;101165.19;;;14.01;53.40
63654;BME280;49809;47.418;19.080;2023-04-10T08:17:05;101164.97;;;14.71;50.84
63654;BME280;49809;47.418;19.080;2023-04-10T08:20:41;101156.44;;;15.27;48.74
63654;BME280;49809;47.418;19.080;2023-04-10T08:24:07;101159.16;;;15.42;47.85
63654;BME280;49809;47.418;19.080;2023-04-10T08:27:41;101154.00;;;15.97;46.70
63654;BME280;49809;47.418;19.080;2023-04-10T08:31:10;101165.75;;;16.12;46.70
63654;BME280;49809;47.418;19.080;2023-04-10T08:34:44;101163.00;;;16.82;44.79
63654;BME280;49809;47.418;19.080;2023-04-10T08:41:51;101155.00;;;16.82;42.24
63654;BME280;49809;47.418;19.080;2023-04-10T08:44:56;101152.88;;;16.84;42.02
63654;BME280;49809;47.418;19.080;2023-04-10T08:48:31;101152.34;;;16.72;39.66
63654;BME280;49809;47.418;19.080;2023-04-10T08:52:13;101148.06;;;16.61;40.00
63654;BME280;49809;47.418;19.080;2023-04-10T08:55:52;101146.28;;;17.26;37.63
63654;BME280;49809;47.418;19.080;2023-04-10T08:59:10;101140.62;;;17.81;36.57
63654;BME280;49809;47.418;19.080;2023-04-10T09:02:40;101140.84;;;18.24;34.94
63654;BME280;49809;47.418;19.080;2023-04-10T09:06:11;101143.38;;;18.39;35.45
63654;BME280;49809;47.418;19.080;2023-04-10T09:09:37;101135.41;;;18.87;35.28
63654;BME280;49809;47.418;19.080;2023-04-10T09:12:55;101126.72;;;18.95;34.87
63654;BME280;49809;47.418;19.080;2023-04-10T09:16:32;101131.00;;;18.43;35.51
63654;BME280;49809;47.418;19.080;2023-04-10T09:27:31;101114.09;;;19.57;32.49
63654;BME280;49809;47.418;19.080;2023-04-10T09:31:27;101110.53;;;20.45;32.12
63654;BME280;49809;47.418;19.080;2023-04-10T09:34:54;101110.81;;;20.43;31.10
63654;BME280;49809;47.418;19.080;2023-04-10T09:42:14;101103.84;;;19.21;33.36
63654;BME280;49809;47.418;19.080;2023-04-10T09:56:35;101086.66;;;18.27;33.93
63654;BME280;49809;47.418;19.080;2023-04-10T10:00:07;101078.59;;;20.24;31.16
63654;BME280;49809;47.418;19.080;2023-04-10T10:03:43;101081.97;;;19.70;32.08
63654;BME280;49809;47.418;19.080;2023-04-10T10:07:24;101080.91;;;19.29;32.56
63654;BME280;49809;47.418;19.080;2023-04-10T10:22:01;101071.06;;;19.62;30.59
63654;BME280;49809;47.418;19.080;2023-04-10T10:25:55;101079.66;;;18.31;32.45
63654;BME280;49809;47.418;19.080;2023-04-10T10:44:41;101071.81;;;16.94;36.27
63654;BME280;49809;47.418;19.080;2023-04-10T12:02:52;101040.22;;;15.86;42.81
63654;BME280;49809;47.418;19.080;2023-04-10T13:10:31;100962.25;;;15.08;46.25
63654;BME280;49809;47.418;19.080;2023-04-10T13:21:09;100938.37;;;16.28;44.25
63654;BME280;49809;47.418;19.080;2023-04-10T13:24:52;100940.72;;;16.50;43.53
63654;BME280;49809;47.418;19.080;2023-04-10T13:28:29;100940.88;;;15.99;44.21
63654;BME280;49809;47.418;19.080;2023-04-10T13:32:08;100935.28;;;16.01;44.35
63654;BME280;49809;47.418;19.080;2023-04-10T13:40:04;100916.41;;;15.67;44.00
63654;BME280;49809;47.418;19.080;2023-04-10T16:31:02;100715.69;;;15.70;42.21
63654;BME280;49809;47.418;19.080;2023-04-10T16:34:29;100708.88;;;15.39;42.71
63654;BME280;49809;47.418;19.080;2023-04-10T17:07:05;100691.69;;;14.35;45.64
63654;BME280;49809;47.418;19.080;2023-04-10T17:10:52;100688.22;;;14.29;45.38
63654;BME280;49809;47.418;19.080;2023-04-10T17:43:27;100720.59;;;13.71;51.25
63654;BME280;49809;47.418;19.080;2023-04-10T17:58:06;100740.62;;;13.26;56.25
63654;BME280;49809;47.418;19.080;2023-04-10T18:12:37;100749.69;;;12.30;72.16
63654;BME280;49809;47.418;19.080;2023-04-10T18:16:05;100753.44;;;12.07;74.81
63654;BME280;49809;47.418;19.080;2023-04-10T18:19:41;100754.88;;;11.93;74.58
63654;BME280;49809;47.418;19.080;2023-04-10T18:23:24;100751.69;;;11.91;74.86
63654;BME280;49809;47.418;19.080;2023-04-10T18:27:13;100753.22;;;11.87;75.80
63654;BME280;49809;47.418;19.080;2023-04-10T18:49:57;100759.53;;;11.81;74.71
63654;BME280;49809;47.418;19.080;2023-04-10T19:00:40;100758.97;;;11.57;76.15
63654;BME280;49809;47.418;19.080;2023-04-10T19:07:52;100800.66;;;11.61;76.87
63654;BME280;49809;47.418;19.080;2023-04-10T19:11:21;100789.09;;;11.51;77.84
63654;BME280;49809;47.418;19.080;2023-04-10T19:15:05;100781.62;;;11.48;78.27
63654;BME280;49809;47.418;19.080;2023-04-10T19:29:25;100776.50;;;11.03;83.82
63654;BME280;49809;47.418;19.080;2023-04-10T19:33:02;100785.81;;;10.88;85.57
63654;BME280;49809;47.418;19.080;2023-04-10T19:47:39;100771.72;;;10.38;95.98
63654;BME280;49809;47.418;19.080;2023-04-10T19:51:21;100774.56;;;10.20;99.44
63654;BME280;49809;47.418;19.080;2023-04-10T19:54:50;100772.91;;;10.02;100.00
63654;BME280;49809;47.418;19.080;2023-04-10T19:58:09;100763.38;;;9.89;100.00
63654;BME280;49809;47.418;19.080;2023-04-10T20:01:44;100764.22;;;9.78;100.00
63654;BME280;49809;47.418;19.080;2023-04-10T20:12:27;100761.72;;;9.60;100.00
63654;BME280;49809;47.418;19.080;2023-04-10T20:15:54;100757.97;;;9.56;100.00
63654;BME280;49809;47.418;19.080;2023-04-10T20:23:06;100752.25;;;9.36;100.00
63654;BME280;49809;47.418;19.080;2023-04-10T20:26:42;100752.34;;;9.41;100.00
63654;BME280;49809;47.418;19.080;2023-04-10T20:30:19;100755.91;;;9.35;100.00
63654;BME280;49809;47.418;19.080;2023-04-10T20:33:44;100753.16;;;9.30;100.00
63654;BME280;49809;47.418;19.080;2023-04-10T20:37:30;100744.69;;;9.28;100.00
63654;BME280;49809;47.418;19.080;2023-04-10T20:44:49;100745.13;;;9.25;100.00
63654;BME280;49809;47.418;19.080;2023-04-10T20:48:23;100734.91;;;9.16;100.00
63654;BME280;49809;47.418;19.080;2023-04-10T20:52:10;100733.66;;;9.07;100.00
63654;BME280;49809;47.418;19.080;2023-04-10T21:03:10;100729.53;;;8.65;100.00
63654;BME280;49809;47.418;19.080;2023-04-10T21:10:05;100734.50;;;8.32;100.00
63654;BME280;49809;47.418;19.080;2023-04-10T21:17:24;100726.00;;;8.00;100.00
63654;BME280;49809;47.418;19.080;2023-04-10T21:20:57;100730.31;;;7.94;100.00
63654;BME280;49809;47.418;19.080;2023-04-10T21:24:34;100737.53;;;7.87;100.00
63654;BME280;49809;47.418;19.080;2023-04-10T22:11:48;100697.69;;;6.68;100.00
63654;BME280;49809;47.418;19.080;2023-04-10T22:15:09;100696.94;;;6.61;100.00
63654;BME280;49809;47.418;19.080;2023-04-10T22:18:44;100692.75;;;6.53;100.00
63654;BME280;49809;47.418;19.080;2023-04-10T22:22:21;100684.72;;;6.48;100.00
63654;BME280;49809;47.418;19.080;2023-04-10T22:29:54;100678.91;;;6.39;100.00
63654;BME280;49809;47.418;19.080;2023-04-10T22:37:05;100680.87;;;6.19;100.00
63654;BME280;49809;47.418;19.080;2023-04-10T22:40:35;100679.28;;;6.18;100.00
63654;BME280;49809;47.418;19.080;2023-04-10T22:44:13;100677.69;;;6.10;100.00
63654;BME280;49809;47.418;19.080;2023-04-10T22:54:47;100677.59;;;5.86;100.00
63654;BME280;49809;47.418;19.080;2023-04-10T22:58:15;100675.03;;;5.79;100.00
63654;BME280;49809;47.418;19.080;2023-04-10T23:01:56;100672.66;;;5.71;100.00
63654;BME280;49809;47.418;19.080;2023-04-10T23:05:19;100666.97;;;5.74;100.00
63654;BME280;49809;47.418;19.080;2023-04-10T23:08:51;100670.06;;;5.64;100.00
63654;BME280;49809;47.418;19.080;2023-04-10T23:23:18;100670.91;;;5.52;100.00
63654;BME280;49809;47.418;19.080;2023-04-10T23:26:41;100673.34;;;5.53;100.00
63654;BME280;49809;47.418;19.080;2023-04-10T23:37:32;100662.28;;;5.45;100.00
63654;BME280;49809;47.418;19.080;2023-04-10T23:41:15;100654.59;;;5.43;100.00
63654;BME280;49809;47.418;19.080;2023-04-10T23:44:42;100651.03;;;5.31;100.00
63654;BME280;49809;47.418;19.080;2023-04-10T23:55:39;100649.47;;;5.17;100.00
63654;BME280;49809;47.418;19.080;2023-04-10T23:59:17;100653.91;;;5.10;100.00
